createdAt,value
2022-10-26T00:01:53.115Z,3.72
2022-10-26T00:04:43.597Z,3.92
2022-10-26T00:07:33.843Z,3.30
2022-10-26T00:10:27.172Z,3.20
2022-10-26T00:13:19.763Z,3.80
2022-10-26T00:16:23.012Z,3.83
2022-10-26T00:19:12.869Z,3.63
2022-10-26T00:22:02.801Z,3.22
2022-10-26T00:24:53.035Z,3.35
2022-10-26T00:27:43.017Z,3.50
2022-10-26T00:30:32.806Z,3.58
2022-10-26T00:33:22.705Z,3.20
2022-10-26T00:36:17.036Z,2.92
2022-10-26T00:39:07.281Z,3.47
2022-10-26T00:41:57.248Z,2.90
2022-10-26T00:44:47.240Z,3.55
2022-10-26T00:47:43.205Z,3.13
2022-10-26T00:50:44.338Z,3.60
2022-10-26T00:53:35.329Z,3.50
2022-10-26T00:56:25.525Z,3.35
2022-10-26T00:59:17.605Z,4.05
2022-10-26T01:02:07.697Z,3.40
2022-10-26T01:04:58.111Z,3.50
2022-10-26T01:07:48.962Z,3.22
2022-10-26T01:10:41.701Z,3.50
2022-10-26T01:13:35.958Z,3.03
2022-10-26T01:19:58.997Z,3.10
2022-10-26T01:22:58.186Z,2.95
2022-10-26T01:26:09.600Z,3.85
2022-10-26T01:29:24.353Z,3.78
2022-10-26T01:32:23.265Z,3.30
2022-10-26T01:35:19.822Z,3.78
2022-10-26T01:38:24.007Z,3.60
2022-10-26T01:41:30.080Z,3.90
2022-10-26T01:44:28.564Z,3.70
2022-10-26T01:47:20.763Z,3.97
2022-10-26T01:50:11.597Z,3.55
2022-10-26T01:53:01.794Z,4.00
2022-10-26T01:55:53.401Z,3.97
2022-10-26T01:58:52.557Z,3.63
2022-10-26T02:01:48.526Z,3.90
2022-10-26T02:05:00.152Z,4.30
2022-10-26T02:08:34.312Z,3.90
2022-10-26T02:11:30.270Z,4.85
2022-10-26T02:14:36.530Z,4.32
2022-10-26T02:17:38.393Z,5.05
2022-10-26T02:20:36.123Z,4.15
2022-10-26T02:23:28.128Z,4.53
2022-10-26T02:26:22.137Z,4.10
2022-10-26T02:29:17.649Z,3.83
2022-10-26T02:32:09.030Z,3.85
2022-10-26T02:35:01.089Z,3.80
2022-10-26T02:37:54.419Z,4.30
2022-10-26T02:40:47.384Z,4.57
2022-10-26T02:43:45.423Z,3.83
2022-10-26T02:46:36.232Z,4.00
2022-10-26T02:49:27.212Z,3.50
2022-10-26T02:52:40.852Z,3.58
2022-10-26T02:55:40.305Z,3.50
2022-10-26T02:58:36.670Z,3.50
2022-10-26T03:01:28.547Z,3.50
2022-10-26T03:04:18.994Z,3.80
2022-10-26T03:07:09.488Z,3.45
2022-10-26T03:09:59.274Z,3.60
2022-10-26T03:12:49.332Z,4.30
2022-10-26T03:15:39.546Z,3.92
2022-10-26T03:18:29.492Z,3.30
2022-10-26T03:21:19.418Z,4.05
2022-10-26T03:24:10.102Z,3.85
2022-10-26T03:27:02.225Z,3.10
2022-10-26T03:29:53.844Z,3.22
2022-10-26T03:32:43.900Z,3.50
2022-10-26T03:35:33.924Z,3.28
2022-10-26T03:38:24.309Z,3.20
2022-10-26T03:41:14.444Z,3.17
2022-10-26T03:44:04.544Z,3.60
2022-10-26T03:46:54.524Z,3.88
2022-10-26T03:49:44.304Z,3.45
2022-10-26T03:52:34.128Z,3.90
2022-10-26T03:55:24.014Z,4.00
2022-10-26T03:58:13.802Z,3.90
2022-10-26T04:01:04.381Z,4.43
2022-10-26T04:03:54.561Z,4.57
2022-10-26T04:06:44.322Z,4.28
2022-10-26T04:09:34.183Z,4.40
2022-10-26T04:12:24.040Z,5.43
2022-10-26T04:15:14.678Z,5.35
2022-10-26T04:18:04.833Z,5.28
2022-10-26T04:20:55.100Z,5.15
2022-10-26T04:23:45.032Z,4.20
2022-10-26T04:26:35.168Z,4.68
2022-10-26T04:29:25.056Z,4.43
2022-10-26T04:32:14.989Z,3.85
2022-10-26T04:35:05.135Z,4.00
2022-10-26T04:37:59.526Z,4.38
2022-10-26T04:40:50.800Z,4.35
2022-10-26T04:43:40.567Z,3.75
2022-10-26T04:46:30.437Z,3.70
2022-10-26T04:49:20.393Z,3.40
2022-10-26T04:52:10.504Z,3.60
2022-10-26T04:55:01.088Z,3.67
2022-10-26T04:57:52.302Z,3.65
2022-10-26T05:00:44.104Z,3.42
2022-10-26T05:03:34.597Z,4.80
2022-10-26T05:06:24.584Z,3.55
2022-10-26T05:09:15.204Z,3.15
2022-10-26T05:12:05.087Z,9.65
2022-10-26T05:14:58.914Z,7.05
2022-10-26T05:17:58.456Z,26.77
2022-10-26T05:20:50.159Z,18.45
2022-10-26T05:23:40.267Z,23.23
2022-10-26T05:26:30.245Z,12.65
2022-10-26T05:29:20.133Z,19.27
2022-10-26T05:32:09.968Z,12.32
2022-10-26T05:34:59.894Z,7.30
2022-10-26T05:37:49.866Z,6.10
2022-10-26T05:40:50.145Z,4.00
2022-10-26T05:43:40.569Z,4.00
2022-10-26T05:46:30.451Z,3.45
2022-10-26T05:49:20.337Z,3.15
2022-10-26T05:52:10.209Z,3.17
2022-10-26T05:55:00.205Z,4.25
2022-10-26T05:57:51.076Z,3.50
2022-10-26T06:01:11.858Z,3.72
2022-10-26T06:04:38.630Z,3.30
2022-10-26T06:07:29.217Z,3.63
2022-10-26T06:10:20.187Z,3.67
2022-10-26T06:13:10.564Z,3.70
2022-10-26T06:16:26.470Z,3.80
2022-10-26T06:19:46.170Z,3.63
2022-10-26T06:22:54.339Z,3.60
2022-10-26T06:26:13.795Z,3.78
2022-10-26T06:29:17.811Z,3.60
2022-10-26T06:32:09.878Z,5.40
2022-10-26T06:35:07.304Z,3.58
2022-10-26T06:38:02.359Z,4.28
2022-10-26T06:40:56.351Z,4.13
2022-10-26T06:46:43.603Z,4.90
2022-10-26T06:49:59.239Z,4.63
2022-10-26T06:52:54.723Z,5.30
2022-10-26T06:55:47.929Z,4.22
2022-10-26T06:58:40.438Z,4.85
2022-10-26T07:01:30.406Z,4.35
2022-10-26T07:04:20.545Z,4.00
2022-10-26T07:07:29.219Z,4.32
2022-10-26T07:10:18.946Z,4.65
2022-10-26T07:13:10.283Z,4.18
2022-10-26T07:16:00.870Z,3.90
2022-10-26T07:18:51.009Z,4.65
2022-10-26T07:21:40.846Z,4.32
2022-10-26T07:24:31.169Z,3.72
2022-10-26T07:27:21.297Z,4.20
2022-10-26T07:30:11.987Z,3.90
2022-10-26T07:33:07.993Z,3.50
2022-10-26T07:35:59.518Z,4.20
2022-10-26T07:38:53.118Z,3.90
2022-10-26T07:41:44.672Z,3.60
2022-10-26T07:44:34.736Z,3.47
2022-10-26T07:47:24.945Z,3.00
2022-10-26T07:50:14.817Z,3.50
2022-10-26T07:53:05.050Z,3.28
2022-10-26T07:55:55.998Z,3.58
2022-10-26T07:58:46.173Z,3.95
2022-10-26T08:01:36.861Z,3.80
2022-10-26T08:04:27.049Z,3.75
2022-10-26T08:07:16.890Z,4.05
2022-10-26T08:10:07.110Z,3.30
2022-10-26T08:12:57.149Z,5.07
2022-10-26T08:15:47.685Z,3.55
2022-10-26T08:18:37.969Z,4.03
2022-10-26T08:21:39.215Z,3.47
2022-10-26T08:24:30.121Z,3.95
2022-10-26T08:27:20.157Z,3.75
2022-10-26T08:30:10.404Z,3.88
2022-10-26T08:33:01.923Z,3.92
2022-10-26T08:36:00.563Z,3.60
2022-10-26T08:38:50.608Z,3.95
2022-10-26T08:41:46.676Z,3.97
2022-10-26T08:44:47.891Z,4.30
2022-10-26T08:47:46.792Z,6.43
2022-10-26T08:50:44.113Z,5.85
2022-10-26T08:53:41.739Z,6.45
2022-10-26T08:56:44.859Z,4.88
2022-10-26T09:00:05.669Z,4.53
2022-10-26T09:02:57.339Z,4.72
2022-10-26T09:06:18.618Z,5.47
2022-10-26T09:09:23.907Z,4.50
2022-10-26T09:12:40.497Z,4.63
2022-10-26T09:15:36.687Z,4.57
2022-10-26T09:18:37.949Z,4.43
2022-10-26T09:21:37.213Z,4.60
2022-10-26T09:24:57.264Z,4.40
2022-10-26T09:27:52.549Z,4.32
2022-10-26T09:30:47.567Z,4.20
2022-10-26T09:33:40.479Z,4.15
2022-10-26T09:36:30.853Z,3.63
2022-10-26T09:39:26.346Z,3.78
2022-10-26T09:42:22.195Z,3.78
2022-10-26T09:45:29.576Z,3.92
2022-10-26T09:48:35.060Z,3.83
2022-10-26T09:51:27.128Z,3.30
2022-10-26T09:54:20.487Z,3.78
2022-10-26T09:57:15.783Z,3.72
2022-10-26T10:00:06.324Z,3.85
2022-10-26T10:02:58.602Z,4.28
2022-10-26T10:05:51.732Z,2.85
2022-10-26T10:08:43.073Z,3.42
2022-10-26T10:11:57.928Z,3.45
2022-10-26T10:14:59.051Z,3.55
2022-10-26T10:17:53.078Z,2.90
2022-10-26T10:20:52.457Z,3.10
2022-10-26T10:23:54.552Z,2.97
2022-10-26T10:27:04.247Z,3.35
2022-10-26T10:29:59.873Z,3.92
2022-10-26T10:33:09.223Z,4.30
2022-10-26T10:35:59.593Z,4.20
2022-10-26T10:38:51.488Z,3.97
2022-10-26T10:41:45.435Z,3.65
2022-10-26T10:44:35.696Z,3.22
2022-10-26T10:47:31.623Z,2.90
2022-10-26T10:50:21.883Z,2.92
2022-10-26T10:53:25.788Z,3.08
2022-10-26T10:56:48.189Z,1.98
2022-10-26T11:00:01.911Z,2.42
2022-10-26T11:02:55.110Z,2.25
2022-10-26T11:06:09.303Z,2.50
2022-10-26T11:09:07.801Z,2.10
2022-10-26T11:12:03.421Z,1.92
2022-10-26T11:15:16.764Z,2.17
2022-10-26T11:18:21.087Z,2.08
2022-10-26T11:24:34.275Z,2.58
2022-10-26T11:27:27.755Z,2.65
2022-10-26T11:30:25.782Z,2.60
2022-10-26T11:33:22.238Z,2.28
2022-10-26T11:36:21.984Z,2.60
2022-10-26T11:39:21.053Z,2.30
2022-10-26T11:42:38.165Z,1.92
2022-10-26T11:45:34.316Z,2.08
2022-10-26T11:49:09.556Z,2.05
2022-10-26T11:52:17.613Z,1.98
2022-10-26T11:55:11.029Z,2.35
2022-10-26T11:58:03.049Z,2.17
2022-10-26T12:00:58.385Z,1.73
2022-10-26T12:03:52.720Z,1.40
2022-10-26T12:06:44.588Z,1.60
2022-10-26T12:09:38.839Z,1.95
2022-10-26T12:12:42.733Z,1.60
2022-10-26T12:19:02.498Z,1.70
2022-10-26T12:21:54.132Z,1.58
2022-10-26T12:24:46.079Z,1.63
2022-10-26T12:27:39.388Z,1.35
2022-10-26T12:30:34.723Z,1.60
2022-10-26T12:33:29.205Z,1.60
2022-10-26T12:36:50.239Z,1.73
2022-10-26T12:39:42.501Z,1.90
2022-10-26T12:42:41.374Z,2.70
2022-10-26T12:45:31.946Z,2.45
2022-10-26T12:48:40.490Z,2.53
2022-10-26T12:51:30.763Z,2.00
2022-10-26T12:55:00.410Z,2.00
2022-10-26T12:58:18.272Z,1.48
2022-10-26T13:01:23.497Z,1.58
2022-10-26T13:04:13.872Z,1.70
2022-10-26T13:07:23.409Z,1.58
2022-10-26T13:10:13.285Z,1.92
2022-10-26T13:13:06.279Z,1.92
2022-10-26T13:15:57.943Z,2.00
2022-10-26T13:18:49.254Z,1.63
2022-10-26T13:21:47.698Z,1.90
2022-10-26T13:27:33.364Z,1.60
2022-10-26T13:30:45.312Z,2.30
2022-10-26T13:33:40.299Z,1.77
2022-10-26T13:36:41.654Z,2.63
2022-10-26T13:39:56.125Z,1.90
2022-10-26T13:45:59.994Z,2.30
2022-10-26T13:48:52.829Z,1.52
2022-10-26T13:51:50.266Z,1.52
2022-10-26T13:55:04.251Z,1.85
2022-10-26T13:58:18.531Z,1.83
2022-10-26T14:01:21.336Z,2.05
2022-10-26T14:04:26.702Z,1.85
2022-10-26T14:07:22.821Z,1.88
2022-10-26T14:10:29.262Z,1.40
2022-10-26T14:13:23.651Z,2.20
2022-10-26T14:16:19.092Z,3.13
2022-10-26T14:19:15.465Z,2.10
2022-10-26T14:22:06.946Z,2.40
2022-10-26T14:25:01.211Z,1.90
2022-10-26T14:27:52.385Z,2.17
2022-10-26T14:33:33.514Z,1.67
2022-10-26T14:36:30.232Z,1.77
2022-10-26T14:39:44.179Z,1.75
2022-10-26T14:42:42.255Z,1.83
2022-10-26T14:45:50.241Z,2.10
2022-10-26T14:48:50.215Z,1.50
2022-10-26T14:51:40.078Z,1.63
2022-10-26T14:54:30.551Z,1.92
2022-10-26T14:57:41.308Z,1.50
2022-10-26T15:00:32.101Z,1.77
2022-10-26T15:03:22.577Z,2.58
2022-10-26T15:06:27.949Z,3.55
2022-10-26T15:09:37.629Z,6.05
2022-10-26T15:12:36.565Z,7.10
2022-10-26T15:15:26.604Z,7.63
2022-10-26T15:18:28.305Z,5.15
2022-10-26T15:21:23.260Z,3.08
2022-10-26T15:24:27.704Z,2.67
2022-10-26T15:27:18.142Z,7.07
2022-10-26T15:30:25.465Z,10.23
2022-10-26T15:33:24.105Z,8.50
2022-10-26T15:36:18.551Z,2.33
2022-10-26T15:39:10.077Z,2.10
2022-10-26T15:42:00.290Z,2.17
2022-10-26T15:44:52.698Z,2.33
2022-10-26T15:47:43.346Z,2.38
2022-10-26T15:50:35.554Z,2.22
2022-10-26T15:53:28.175Z,1.75
2022-10-26T15:56:20.824Z,2.75
2022-10-26T15:59:17.579Z,1.92
2022-10-26T16:02:17.407Z,8.10
2022-10-26T16:05:08.876Z,2.53
2022-10-26T16:07:59.173Z,1.90
2022-10-26T16:10:51.066Z,1.90
2022-10-26T16:13:41.532Z,2.00
2022-10-26T16:16:43.079Z,1.70
2022-10-26T16:19:39.725Z,2.00
2022-10-26T16:22:31.020Z,1.50
2022-10-26T16:25:25.155Z,1.50
2022-10-26T16:28:16.735Z,1.55
2022-10-26T16:31:10.320Z,1.85
2022-10-26T16:34:03.975Z,2.28
2022-10-26T16:36:54.662Z,1.70
2022-10-26T16:39:44.549Z,1.60
2022-10-26T16:42:34.733Z,1.63
2022-10-26T16:45:25.396Z,1.77
2022-10-26T16:48:16.086Z,2.20
2022-10-26T16:51:15.047Z,2.00
2022-10-26T16:54:05.505Z,2.08
2022-10-26T16:56:55.502Z,2.47
2022-10-26T16:59:45.616Z,2.38
2022-10-26T17:02:36.158Z,3.15
2022-10-26T17:05:26.357Z,2.40
2022-10-26T17:08:16.348Z,2.45
2022-10-26T17:11:09.530Z,2.60
2022-10-26T17:14:01.760Z,2.90
2022-10-26T17:16:52.125Z,3.05
2022-10-26T17:19:42.542Z,3.42
2022-10-26T17:22:33.028Z,3.88
2022-10-26T17:25:23.213Z,4.70
2022-10-26T17:28:14.573Z,4.07
2022-10-26T17:31:13.634Z,3.78
2022-10-26T17:34:04.246Z,4.05
2022-10-26T17:36:54.695Z,3.45
2022-10-26T17:39:44.927Z,3.58
2022-10-26T17:42:35.336Z,3.75
2022-10-26T17:45:25.939Z,4.30
2022-10-26T17:48:19.877Z,4.03
2022-10-26T17:51:15.549Z,4.75
2022-10-26T17:54:06.128Z,4.28
2022-10-26T17:56:57.795Z,4.55
2022-10-26T17:59:48.735Z,3.88
2022-10-26T18:02:40.192Z,4.28
2022-10-26T18:05:31.758Z,4.40
2022-10-26T18:08:24.288Z,4.75
2022-10-26T18:11:25.344Z,4.45
2022-10-26T18:14:16.901Z,4.00
2022-10-26T18:17:07.903Z,4.10
2022-10-26T18:22:48.596Z,4.07
2022-10-26T18:25:39.291Z,4.22
2022-10-26T18:28:29.934Z,4.03
2022-10-26T18:31:22.584Z,4.10
2022-10-26T18:34:12.800Z,4.55
2022-10-26T18:37:03.405Z,4.50
2022-10-26T18:39:53.596Z,5.07
2022-10-26T18:42:44.010Z,5.13
2022-10-26T18:45:34.213Z,4.70
2022-10-26T18:48:24.253Z,5.30
2022-10-26T18:51:18.288Z,5.68
2022-10-26T18:54:08.591Z,5.27
2022-10-26T18:56:59.139Z,5.15
2022-10-26T18:59:54.138Z,5.50
2022-10-26T19:02:48.621Z,5.93
2022-10-26T19:05:41.992Z,5.57
2022-10-26T19:08:32.405Z,5.70
2022-10-26T19:11:26.642Z,5.13
2022-10-26T19:14:16.910Z,5.57
2022-10-26T19:17:07.112Z,4.90
2022-10-26T19:19:57.359Z,5.68
2022-10-26T19:22:48.197Z,5.05
2022-10-26T19:25:38.776Z,4.82
2022-10-26T19:28:37.459Z,28.20
2022-10-26T19:31:32.368Z,8.05
